sensor_id;sensor_type;location;lat;lon;timestamp;temperature;humidity
23719;DHT22;43322;52.230;5.702;2022-09-09T00:00:14;15.60;99.90
23719;DHT22;43322;52.230;5.702;2022-09-09T00:02:46;15.40;99.90
23719;DHT22;43322;52.230;5.702;2022-09-09T00:05:22;15.50;99.90
23719;DHT22;43322;52.230;5.702;2022-09-09T00:07:53;15.40;99.90
23719;DHT22;43322;52.230;5.702;2022-09-09T00:10:28;15.30;99.90
23719;DHT22;43322;52.230;5.702;2022-09-09T00:13:01;15.30;99.90
23719;DHT22;43322;52.230;5.702;2022-09-09T00:15:34;15.40;99.90
23719;DHT22;43322;52.230;5.702;2022-09-09T00:18:10;16.00;99.90
23719;DHT22;43322;52.230;5.702;2022-09-09T00:20:46;15.80;99.90
23719;DHT22;43322;52.230;5.702;2022-09-09T00:23:22;15.70;99.90
23719;DHT22;43322;52.230;5.702;2022-09-09T00:25:58;15.40;99.90
23719;DHT22;43322;52.230;5.702;2022-09-09T00:28:27;15.30;99.90
23719;DHT22;43322;52.230;5.702;2022-09-09T00:31:00;15.40;99.90
23719;DHT22;43322;52.230;5.702;2022-09-09T00:33:34;15.30;99.90
23719;DHT22;43322;52.230;5.702;2022-09-09T00:36:02;15.60;99.90
23719;DHT22;43322;52.230;5.702;2022-09-09T00:38:33;15.40;99.90
23719;DHT22;43322;52.230;5.702;2022-09-09T00:41:07;15.60;99.90
23719;DHT22;43322;52.230;5.702;2022-09-09T00:43:39;15.40;99.90
23719;DHT22;43322;52.230;5.702;2022-09-09T00:46:23;15.30;99.90
23719;DHT22;43322;52.230;5.702;2022-09-09T00:49:03;15.50;99.90
23719;DHT22;43322;52.230;5.702;2022-09-09T00:51:39;15.50;99.90
23719;DHT22;43322;52.230;5.702;2022-09-09T00:54:22;15.20;99.90
23719;DHT22;43322;52.230;5.702;2022-09-09T00:56:59;15.30;99.90
23719;DHT22;43322;52.230;5.702;2022-09-09T00:59:32;15.30;99.90
23719;DHT22;43322;52.230;5.702;2022-09-09T01:02:04;15.30;99.90
23719;DHT22;43322;52.230;5.702;2022-09-09T01:04:36;15.20;99.90
23719;DHT22;43322;52.230;5.702;2022-09-09T01:07:11;15.30;99.90
23719;DHT22;43322;52.230;5.702;2022-09-09T01:09:50;15.20;99.90
23719;DHT22;43322;52.230;5.702;2022-09-09T01:12:24;15.30;99.90
23719;DHT22;43322;52.230;5.702;2022-09-09T01:14:58;15.20;99.90
23719;DHT22;43322;52.230;5.702;2022-09-09T01:17:31;15.50;99.90
23719;DHT22;43322;52.230;5.702;2022-09-09T01:20:06;15.80;99.90
23719;DHT22;43322;52.230;5.702;2022-09-09T01:22:43;15.20;99.90
23719;DHT22;43322;52.230;5.702;2022-09-09T01:25:28;15.10;99.90
23719;DHT22;43322;52.230;5.702;2022-09-09T01:27:58;15.50;99.90
23719;DHT22;43322;52.230;5.702;2022-09-09T01:30:27;15.00;99.90
23719;DHT22;43322;52.230;5.702;2022-09-09T01:32:56;15.00;99.90
23719;DHT22;43322;52.230;5.702;2022-09-09T01:35:37;15.50;99.90
23719;DHT22;43322;52.230;5.702;2022-09-09T01:38:06;15.00;99.90
23719;DHT22;43322;52.230;5.702;2022-09-09T01:40:33;15.00;99.90
23719;DHT22;43322;52.230;5.702;2022-09-09T01:43:01;14.90;99.90
23719;DHT22;43322;52.230;5.702;2022-09-09T01:45:29;15.00;99.90
23719;DHT22;43322;52.230;5.702;2022-09-09T01:47:56;15.00;99.90
23719;DHT22;43322;52.230;5.702;2022-09-09T01:50:23;15.40;99.90
23719;DHT22;43322;52.230;5.702;2022-09-09T01:52:53;14.90;99.90
23719;DHT22;43322;52.230;5.702;2022-09-09T01:55:28;15.10;99.90
23719;DHT22;43322;52.230;5.702;2022-09-09T01:58:07;14.80;99.90
23719;DHT22;43322;52.230;5.702;2022-09-09T02:00:42;15.00;99.90
23719;DHT22;43322;52.230;5.702;2022-09-09T02:03:18;14.80;99.90
23719;DHT22;43322;52.230;5.702;2022-09-09T02:05:55;14.90;99.90
23719;DHT22;43322;52.230;5.702;2022-09-09T02:08:29;14.80;99.90
23719;DHT22;43322;52.230;5.702;2022-09-09T02:11:03;14.80;99.90
23719;DHT22;43322;52.230;5.702;2022-09-09T02:13:36;14.70;99.90
23719;DHT22;43322;52.230;5.702;2022-09-09T02:16:07;14.70;99.90
23719;DHT22;43322;52.230;5.702;2022-09-09T02:18:38;14.90;99.90
23719;DHT22;43322;52.230;5.702;2022-09-09T02:21:06;14.80;99.90
23719;DHT22;43322;52.230;5.702;2022-09-09T02:23:34;15.00;99.90
23719;DHT22;43322;52.230;5.702;2022-09-09T02:26:02;14.90;99.90
23719;DHT22;43322;52.230;5.702;2022-09-09T02:28:33;14.80;99.90
23719;DHT22;43322;52.230;5.702;2022-09-09T02:31:01;14.50;99.90
23719;DHT22;43322;52.230;5.702;2022-09-09T02:33:32;14.70;99.90
23719;DHT22;43322;52.230;5.702;2022-09-09T02:36:02;14.90;99.90
23719;DHT22;43322;52.230;5.702;2022-09-09T02:38:35;14.60;99.90
23719;DHT22;43322;52.230;5.702;2022-09-09T02:41:03;14.50;99.90
23719;DHT22;43322;52.230;5.702;2022-09-09T02:43:31;14.50;99.90
23719;DHT22;43322;52.230;5.702;2022-09-09T02:46:06;14.50;99.90
23719;DHT22;43322;52.230;5.702;2022-09-09T02:48:43;14.50;99.90
23719;DHT22;43322;52.230;5.702;2022-09-09T02:51:19;14.40;99.90
23719;DHT22;43322;52.230;5.702;2022-09-09T02:53:57;14.50;99.90
23719;DHT22;43322;52.230;5.702;2022-09-09T02:56:28;14.10;99.90
23719;DHT22;43322;52.230;5.702;2022-09-09T02:58:55;14.40;99.90
23719;DHT22;43322;52.230;5.702;2022-09-09T03:01:24;14.40;99.90
23719;DHT22;43322;52.230;5.702;2022-09-09T03:03:50;14.90;99.90
23719;DHT22;43322;52.230;5.702;2022-09-09T03:06:17;14.40;99.90
23719;DHT22;43322;52.230;5.702;2022-09-09T03:08:44;14.40;99.90
23719;DHT22;43322;52.230;5.702;2022-09-09T03:11:11;14.40;99.90
23719;DHT22;43322;52.230;5.702;2022-09-09T03:13:38;14.30;99.90
23719;DHT22;43322;52.230;5.702;2022-09-09T03:16:05;14.80;99.90
23719;DHT22;43322;52.230;5.702;2022-09-09T03:18:33;14.20;99.90
23719;DHT22;43322;52.230;5.702;2022-09-09T03:21:00;14.30;99.90
23719;DHT22;43322;52.230;5.702;2022-09-09T03:23:28;14.30;99.90
23719;DHT22;43322;52.230;5.702;2022-09-09T03:25:55;14.40;99.90
23719;DHT22;43322;52.230;5.702;2022-09-09T03:28:24;14.10;99.90
23719;DHT22;43322;52.230;5.702;2022-09-09T03:30:58;14.10;99.90
23719;DHT22;43322;52.230;5.702;2022-09-09T03:33:25;14.10;99.90
23719;DHT22;43322;52.230;5.702;2022-09-09T03:35:54;14.10;99.90
23719;DHT22;43322;52.230;5.702;2022-09-09T03:38:22;14.80;99.90
23719;DHT22;43322;52.230;5.702;2022-09-09T03:40:50;14.10;99.90
23719;DHT22;43322;52.230;5.702;2022-09-09T03:43:16;14.10;99.90
23719;DHT22;43322;52.230;5.702;2022-09-09T03:45:45;14.10;99.90
23719;DHT22;43322;52.230;5.702;2022-09-09T03:48:12;14.10;99.90
23719;DHT22;43322;52.230;5.702;2022-09-09T03:50:42;14.40;99.90
23719;DHT22;43322;52.230;5.702;2022-09-09T03:53:11;14.10;99.90
23719;DHT22;43322;52.230;5.702;2022-09-09T03:55:38;14.00;99.90
23719;DHT22;43322;52.230;5.702;2022-09-09T03:58:07;14.00;99.90
23719;DHT22;43322;52.230;5.702;2022-09-09T04:00:34;14.00;99.90
23719;DHT22;43322;52.230;5.702;2022-09-09T04:03:00;14.00;99.90
23719;DHT22;43322;52.230;5.702;2022-09-09T04:05:27;14.10;99.90
23719;DHT22;43322;52.230;5.702;2022-09-09T04:07:54;14.00;99.90
23719;DHT22;43322;52.230;5.702;2022-09-09T04:10:22;14.00;99.90
23719;DHT22;43322;52.230;5.702;2022-09-09T04:12:49;14.00;99.90
23719;DHT22;43322;52.230;5.702;2022-09-09T04:15:16;14.00;99.90
23719;DHT22;43322;52.230;5.702;2022-09-09T04:17:44;14.00;99.90
23719;DHT22;43322;52.230;5.702;2022-09-09T04:20:11;14.00;99.90
23719;DHT22;43322;52.230;5.702;2022-09-09T04:22:38;13.80;99.90
23719;DHT22;43322;52.230;5.702;2022-09-09T04:25:06;14.10;99.90
23719;DHT22;43322;52.230;5.702;2022-09-09T04:27:34;13.90;99.90
23719;DHT22;43322;52.230;5.702;2022-09-09T04:30:01;14.00;99.90
23719;DHT22;43322;52.230;5.702;2022-09-09T04:32:28;14.60;99.90
23719;DHT22;43322;52.230;5.702;2022-09-09T04:34:55;13.90;99.90
23719;DHT22;43322;52.230;5.702;2022-09-09T04:37:23;14.60;99.90
23719;DHT22;43322;52.230;5.702;2022-09-09T04:39:50;14.00;99.90
23719;DHT22;43322;52.230;5.702;2022-09-09T04:42:17;13.90;99.90
23719;DHT22;43322;52.230;5.702;2022-09-09T04:44:46;13.80;99.90
23719;DHT22;43322;52.230;5.702;2022-09-09T04:47:13;13.80;99.90
23719;DHT22;43322;52.230;5.702;2022-09-09T04:49:39;14.40;99.90
23719;DHT22;43322;52.230;5.702;2022-09-09T04:52:06;13.90;99.90
23719;DHT22;43322;52.230;5.702;2022-09-09T04:54:33;14.40;99.90
23719;DHT22;43322;52.230;5.702;2022-09-09T04:57:00;13.90;99.90
23719;DHT22;43322;52.230;5.702;2022-09-09T04:59:27;14.30;99.90
23719;DHT22;43322;52.230;5.702;2022-09-09T05:01:55;14.00;99.90
23719;DHT22;43322;52.230;5.702;2022-09-09T05:04:22;14.10;99.90
23719;DHT22;43322;52.230;5.702;2022-09-09T05:06:49;13.90;99.90
23719;DHT22;43322;52.230;5.702;2022-09-09T05:09:16;14.50;99.90
23719;DHT22;43322;52.230;5.702;2022-09-09T05:11:42;13.90;99.90
23719;DHT22;43322;52.230;5.702;2022-09-09T05:14:09;13.90;99.90
23719;DHT22;43322;52.230;5.702;2022-09-09T05:16:37;14.70;99.90
23719;DHT22;43322;52.230;5.702;2022-09-09T05:19:06;13.90;99.90
23719;DHT22;43322;52.230;5.702;2022-09-09T05:21:34;14.10;99.90
23719;DHT22;43322;52.230;5.702;2022-09-09T05:24:01;14.00;99.90
23719;DHT22;43322;52.230;5.702;2022-09-09T05:26:28;13.90;99.90
23719;DHT22;43322;52.230;5.702;2022-09-09T05:28:55;14.00;99.90
23719;DHT22;43322;52.230;5.702;2022-09-09T05:31:22;14.00;99.90
23719;DHT22;43322;52.230;5.702;2022-09-09T05:33:49;13.90;99.90
23719;DHT22;43322;52.230;5.702;2022-09-09T05:36:19;13.90;99.90
23719;DHT22;43322;52.230;5.702;2022-09-09T05:38:46;13.90;99.90
23719;DHT22;43322;52.230;5.702;2022-09-09T05:41:15;13.90;99.90
23719;DHT22;43322;52.230;5.702;2022-09-09T05:43:43;13.90;99.90
23719;DHT22;43322;52.230;5.702;2022-09-09T05:46:12;13.90;99.90
23719;DHT22;43322;52.230;5.702;2022-09-09T05:48:41;14.40;99.90
23719;DHT22;43322;52.230;5.702;2022-09-09T05:51:09;14.10;99.90
23719;DHT22;43322;52.230;5.702;2022-09-09T05:53:38;13.90;99.90
23719;DHT22;43322;52.230;5.702;2022-09-09T05:56:07;14.00;99.90
23719;DHT22;43322;52.230;5.702;2022-09-09T05:58:35;14.10;99.90
23719;DHT22;43322;52.230;5.702;2022-09-09T06:01:03;14.70;99.90
23719;DHT22;43322;52.230;5.702;2022-09-09T06:03:30;14.00;99.90
23719;DHT22;43322;52.230;5.702;2022-09-09T06:05:58;14.10;99.90
23719;DHT22;43322;52.230;5.702;2022-09-09T06:08:25;14.50;99.90
23719;DHT22;43322;52.230;5.702;2022-09-09T06:11:01;14.20;99.90
23719;DHT22;43322;52.230;5.702;2022-09-09T06:13:29;14.10;99.90
23719;DHT22;43322;52.230;5.702;2022-09-09T06:15:56;14.30;99.90
23719;DHT22;43322;52.230;5.702;2022-09-09T06:18:24;14.40;99.90
23719;DHT22;43322;52.230;5.702;2022-09-09T06:20:58;14.60;99.90
23719;DHT22;43322;52.230;5.702;2022-09-09T06:23:26;14.40;99.90
23719;DHT22;43322;52.230;5.702;2022-09-09T06:26:02;14.50;99.90
23719;DHT22;43322;52.230;5.702;2022-09-09T06:28:31;14.50;99.90
23719;DHT22;43322;52.230;5.702;2022-09-09T06:30:58;14.60;99.90
23719;DHT22;43322;52.230;5.702;2022-09-09T06:33:25;15.00;99.90
23719;DHT22;43322;52.230;5.702;2022-09-09T06:35:53;14.70;99.90
23719;DHT22;43322;52.230;5.702;2022-09-09T06:38:22;14.80;99.90
23719;DHT22;43322;52.230;5.702;2022-09-09T06:40:52;14.80;99.90
23719;DHT22;43322;52.230;5.702;2022-09-09T06:43:22;15.20;99.90
23719;DHT22;43322;52.230;5.702;2022-09-09T06:45:57;15.00;99.90
23719;DHT22;43322;52.230;5.702;2022-09-09T06:48:24;15.00;99.90
23719;DHT22;43322;52.230;5.702;2022-09-09T06:51:00;15.00;99.90
23719;DHT22;43322;52.230;5.702;2022-09-09T06:53:28;15.10;99.90
23719;DHT22;43322;52.230;5.702;2022-09-09T06:55:54;15.10;99.90
23719;DHT22;43322;52.230;5.702;2022-09-09T06:58:23;15.20;99.90
23719;DHT22;43322;52.230;5.702;2022-09-09T07:00:50;15.60;99.90
23719;DHT22;43322;52.230;5.702;2022-09-09T07:03:16;15.60;99.90
23719;DHT22;43322;52.230;5.702;2022-09-09T07:05:45;15.20;99.90
23719;DHT22;43322;52.230;5.702;2022-09-09T07:08:19;15.30;99.90
23719;DHT22;43322;52.230;5.702;2022-09-09T07:10:46;15.30;99.90
23719;DHT22;43322;52.230;5.702;2022-09-09T07:13:14;15.50;99.90
23719;DHT22;43322;52.230;5.702;2022-09-09T07:15:42;15.70;99.90
23719;DHT22;43322;52.230;5.702;2022-09-09T07:18:09;16.10;99.90
23719;DHT22;43322;52.230;5.702;2022-09-09T07:20:36;15.60;99.90
23719;DHT22;43322;52.230;5.702;2022-09-09T07:23:03;15.60;99.90
23719;DHT22;43322;52.230;5.702;2022-09-09T07:25:30;15.60;99.90
23719;DHT22;43322;52.230;5.702;2022-09-09T07:27:57;15.60;99.90
23719;DHT22;43322;52.230;5.702;2022-09-09T07:30:24;15.70;99.90
23719;DHT22;43322;52.230;5.702;2022-09-09T07:32:52;15.70;99.90
23719;DHT22;43322;52.230;5.702;2022-09-09T07:35:22;15.80;99.90
23719;DHT22;43322;52.230;5.702;2022-09-09T07:37:48;15.90;99.90
23719;DHT22;43322;52.230;5.702;2022-09-09T07:40:16;16.10;99.90
23719;DHT22;43322;52.230;5.702;2022-09-09T07:42:42;16.40;99.90
23719;DHT22;43322;52.230;5.702;2022-09-09T07:45:09;16.20;99.90
23719;DHT22;43322;52.230;5.702;2022-09-09T07:47:37;15.90;99.90
23719;DHT22;43322;52.230;5.702;2022-09-09T07:50:06;16.00;99.90
23719;DHT22;43322;52.230;5.702;2022-09-09T07:52:34;16.00;99.90
23719;DHT22;43322;52.230;5.702;2022-09-09T07:55:00;16.00;99.90
23719;DHT22;43322;52.230;5.702;2022-09-09T07:57:30;16.10;99.90
23719;DHT22;43322;52.230;5.702;2022-09-09T07:59:56;16.20;99.90
23719;DHT22;43322;52.230;5.702;2022-09-09T08:02:24;16.20;99.90
23719;DHT22;43322;52.230;5.702;2022-09-09T08:04:53;16.10;99.90
23719;DHT22;43322;52.230;5.702;2022-09-09T08:07:21;16.10;99.90
23719;DHT22;43322;52.230;5.702;2022-09-09T08:09:48;16.20;99.90
23719;DHT22;43322;52.230;5.702;2022-09-09T08:12:15;16.00;99.90
23719;DHT22;43322;52.230;5.702;2022-09-09T08:14:42;15.90;99.90
23719;DHT22;43322;52.230;5.702;2022-09-09T08:17:09;16.30;99.90
23719;DHT22;43322;52.230;5.702;2022-09-09T08:19:36;16.40;99.90
23719;DHT22;43322;52.230;5.702;2022-09-09T08:22:03;16.80;99.90
23719;DHT22;43322;52.230;5.702;2022-09-09T08:24:31;16.90;99.90
23719;DHT22;43322;52.230;5.702;2022-09-09T08:26:58;16.70;99.90
23719;DHT22;43322;52.230;5.702;2022-09-09T08:29:25;16.50;99.90
23719;DHT22;43322;52.230;5.702;2022-09-09T08:31:54;16.90;99.90
23719;DHT22;43322;52.230;5.702;2022-09-09T08:34:23;16.60;99.90
23719;DHT22;43322;52.230;5.702;2022-09-09T08:36:51;16.30;99.90
23719;DHT22;43322;52.230;5.702;2022-09-09T08:39:20;16.30;99.90
23719;DHT22;43322;52.230;5.702;2022-09-09T08:44:58;16.20;99.90
23719;DHT22;43322;52.230;5.702;2022-09-09T08:47:37;16.20;99.90
23719;DHT22;43322;52.230;5.702;2022-09-09T08:50:18;16.40;99.90
23719;DHT22;43322;52.230;5.702;2022-09-09T08:52:53;16.30;99.90
23719;DHT22;43322;52.230;5.702;2022-09-09T08:55:28;16.30;99.90
23719;DHT22;43322;52.230;5.702;2022-09-09T08:58:02;16.20;99.90
23719;DHT22;43322;52.230;5.702;2022-09-09T09:00:34;16.20;99.90
23719;DHT22;43322;52.230;5.702;2022-09-09T09:03:09;16.30;99.90
23719;DHT22;43322;52.230;5.702;2022-09-09T09:05:44;16.50;99.90
23719;DHT22;43322;52.230;5.702;2022-09-09T09:08:20;16.60;99.90
23719;DHT22;43322;52.230;5.702;2022-09-09T09:10:51;16.60;99.90
23719;DHT22;43322;52.230;5.702;2022-09-09T09:13:30;16.70;99.90
23719;DHT22;43322;52.230;5.702;2022-09-09T09:16:02;16.90;99.90
23719;DHT22;43322;52.230;5.702;2022-09-09T09:18:30;16.50;99.90
23719;DHT22;43322;52.230;5.702;2022-09-09T09:21:05;16.50;99.90
23719;DHT22;43322;52.230;5.702;2022-09-09T09:23:41;16.60;99.90
23719;DHT22;43322;52.230;5.702;2022-09-09T09:26:10;16.60;99.90
23719;DHT22;43322;52.230;5.702;2022-09-09T09:28:40;16.60;99.90
23719;DHT22;43322;52.230;5.702;2022-09-09T09:31:09;16.60;99.90
23719;DHT22;43322;52.230;5.702;2022-09-09T09:33:41;16.60;99.90
23719;DHT22;43322;52.230;5.702;2022-09-09T09:36:11;16.60;99.90
23719;DHT22;43322;52.230;5.702;2022-09-09T09:38:52;16.70;99.90
23719;DHT22;43322;52.230;5.702;2022-09-09T09:41:29;16.80;99.90
23719;DHT22;43322;52.230;5.702;2022-09-09T09:43:58;16.80;99.90
23719;DHT22;43322;52.230;5.702;2022-09-09T09:46:26;16.70;99.90
23719;DHT22;43322;52.230;5.702;2022-09-09T09:48:57;16.60;99.90
23719;DHT22;43322;52.230;5.702;2022-09-09T09:51:25;16.60;99.90
23719;DHT22;43322;52.230;5.702;2022-09-09T09:53:53;16.60;99.90
23719;DHT22;43322;52.230;5.702;2022-09-09T09:56:27;16.60;99.90
23719;DHT22;43322;52.230;5.702;2022-09-09T09:58:57;16.70;99.90
23719;DHT22;43322;52.230;5.702;2022-09-09T10:01:25;17.00;99.90
23719;DHT22;43322;52.230;5.702;2022-09-09T10:03:54;16.80;99.90
23719;DHT22;43322;52.230;5.702;2022-09-09T10:06:30;16.80;99.90
23719;DHT22;43322;52.230;5.702;2022-09-09T10:08:59;16.90;99.90
23719;DHT22;43322;52.230;5.702;2022-09-09T10:11:35;16.90;99.90
23719;DHT22;43322;52.230;5.702;2022-09-09T10:14:15;17.10;99.90
23719;DHT22;43322;52.230;5.702;2022-09-09T10:16:59;17.10;99.90
23719;DHT22;43322;52.230;5.702;2022-09-09T10:19:31;17.20;99.90
23719;DHT22;43322;52.230;5.702;2022-09-09T10:22:16;17.10;99.90
23719;DHT22;43322;52.230;5.702;2022-09-09T10:25:17;17.20;99.90
23719;DHT22;43322;52.230;5.702;2022-09-09T10:27:58;17.10;99.90
23719;DHT22;43322;52.230;5.702;2022-09-09T10:30:40;17.20;99.90
23719;DHT22;43322;52.230;5.702;2022-09-09T10:33:15;17.20;99.90
23719;DHT22;43322;52.230;5.702;2022-09-09T10:35:52;17.20;99.90
23719;DHT22;43322;52.230;5.702;2022-09-09T10:38:24;17.40;99.90
23719;DHT22;43322;52.230;5.702;2022-09-09T10:41:09;17.20;99.90
23719;DHT22;43322;52.230;5.702;2022-09-09T10:46:39;17.10;99.90
23719;DHT22;43322;52.230;5.702;2022-09-09T10:49:18;17.20;99.90
23719;DHT22;43322;52.230;5.702;2022-09-09T10:51:54;17.00;99.90
23719;DHT22;43322;52.230;5.702;2022-09-09T10:54:36;17.00;99.90
23719;DHT22;43322;52.230;5.702;2022-09-09T10:57:11;17.00;99.90
23719;DHT22;43322;52.230;5.702;2022-09-09T10:59:43;17.00;99.90
23719;DHT22;43322;52.230;5.702;2022-09-09T11:02:16;17.30;99.90
23719;DHT22;43322;52.230;5.702;2022-09-09T11:04:50;17.60;99.90
23719;DHT22;43322;52.230;5.702;2022-09-09T11:07:28;17.60;99.90
23719;DHT22;43322;52.230;5.702;2022-09-09T11:10:01;17.50;99.90
23719;DHT22;43322;52.230;5.702;2022-09-09T11:12:30;17.20;99.90
23719;DHT22;43322;52.230;5.702;2022-09-09T11:15:04;17.00;99.90
23719;DHT22;43322;52.230;5.702;2022-09-09T11:17:39;16.70;99.90
23719;DHT22;43322;52.230;5.702;2022-09-09T11:20:11;16.40;99.90
23719;DHT22;43322;52.230;5.702;2022-09-09T11:22:43;16.70;99.90
23719;DHT22;43322;52.230;5.702;2022-09-09T11:25:16;16.90;99.90
23719;DHT22;43322;52.230;5.702;2022-09-09T11:27:55;16.90;99.90
23719;DHT22;43322;52.230;5.702;2022-09-09T11:30:32;17.00;99.90
23719;DHT22;43322;52.230;5.702;2022-09-09T11:33:31;17.30;99.90
23719;DHT22;43322;52.230;5.702;2022-09-09T11:36:24;17.60;99.90
23719;DHT22;43322;52.230;5.702;2022-09-09T11:38:57;18.00;99.90
23719;DHT22;43322;52.230;5.702;2022-09-09T11:41:34;18.90;99.90
23719;DHT22;43322;52.230;5.702;2022-09-09T11:44:10;20.40;99.90
23719;DHT22;43322;52.230;5.702;2022-09-09T11:46:38;21.10;99.90
23719;DHT22;43322;52.230;5.702;2022-09-09T11:49:26;20.70;99.90
23719;DHT22;43322;52.230;5.702;2022-09-09T11:51:53;20.10;99.90
23719;DHT22;43322;52.230;5.702;2022-09-09T11:54:28;19.70;99.90
23719;DHT22;43322;52.230;5.702;2022-09-09T11:56:56;19.60;99.90
23719;DHT22;43322;52.230;5.702;2022-09-09T11:59:24;19.30;99.90
23719;DHT22;43322;52.230;5.702;2022-09-09T12:01:55;19.10;99.90
23719;DHT22;43322;52.230;5.702;2022-09-09T12:04:35;20.20;99.90
23719;DHT22;43322;52.230;5.702;2022-09-09T12:07:23;20.50;99.90
23719;DHT22;43322;52.230;5.702;2022-09-09T12:09:55;20.00;99.90
23719;DHT22;43322;52.230;5.702;2022-09-09T12:12:27;19.70;99.90
23719;DHT22;43322;52.230;5.702;2022-09-09T12:14:58;19.00;99.90
23719;DHT22;43322;52.230;5.702;2022-09-09T12:17:26;18.70;99.90
23719;DHT22;43322;52.230;5.702;2022-09-09T12:20:12;18.50;99.90
23719;DHT22;43322;52.230;5.702;2022-09-09T12:22:54;18.30;99.90
23719;DHT22;43322;52.230;5.702;2022-09-09T12:25:29;18.50;99.90
23719;DHT22;43322;52.230;5.702;2022-09-09T12:28:04;18.50;99.90
23719;DHT22;43322;52.230;5.702;2022-09-09T12:30:35;18.50;99.90
23719;DHT22;43322;52.230;5.702;2022-09-09T12:33:10;18.80;99.90
23719;DHT22;43322;52.230;5.702;2022-09-09T12:35:40;18.60;99.90
23719;DHT22;43322;52.230;5.702;2022-09-09T12:38:13;18.60;99.90
23719;DHT22;43322;52.230;5.702;2022-09-09T12:40:42;18.50;99.90
23719;DHT22;43322;52.230;5.702;2022-09-09T12:43:18;18.20;99.90
23719;DHT22;43322;52.230;5.702;2022-09-09T12:45:47;18.40;99.90
23719;DHT22;43322;52.230;5.702;2022-09-09T12:48:16;18.40;99.90
23719;DHT22;43322;52.230;5.702;2022-09-09T12:50:48;18.30;99.90
23719;DHT22;43322;52.230;5.702;2022-09-09T12:53:21;18.20;99.90
23719;DHT22;43322;52.230;5.702;2022-09-09T12:55:51;18.10;99.90
23719;DHT22;43322;52.230;5.702;2022-09-09T12:58:19;17.90;99.90
23719;DHT22;43322;52.230;5.702;2022-09-09T13:00:50;17.80;99.90
23719;DHT22;43322;52.230;5.702;2022-09-09T13:03:20;17.80;99.90
23719;DHT22;43322;52.230;5.702;2022-09-09T13:05:49;17.80;99.90
23719;DHT22;43322;52.230;5.702;2022-09-09T13:08:17;17.90;99.90
23719;DHT22;43322;52.230;5.702;2022-09-09T13:10:48;18.00;99.90
23719;DHT22;43322;52.230;5.702;2022-09-09T13:13:21;18.60;99.90
23719;DHT22;43322;52.230;5.702;2022-09-09T13:15:50;18.40;99.90
23719;DHT22;43322;52.230;5.702;2022-09-09T13:18:21;18.00;99.90
23719;DHT22;43322;52.230;5.702;2022-09-09T13:20:50;17.80;99.90
23719;DHT22;43322;52.230;5.702;2022-09-09T13:23:18;17.70;99.90
23719;DHT22;43322;52.230;5.702;2022-09-09T13:25:54;17.80;99.90
23719;DHT22;43322;52.230;5.702;2022-09-09T13:28:23;17.90;99.90
23719;DHT22;43322;52.230;5.702;2022-09-09T13:30:57;18.00;99.90
23719;DHT22;43322;52.230;5.702;2022-09-09T13:33:31;18.00;99.90
23719;DHT22;43322;52.230;5.702;2022-09-09T13:36:02;18.20;99.90
23719;DHT22;43322;52.230;5.702;2022-09-09T13:38:32;18.10;99.90
23719;DHT22;43322;52.230;5.702;2022-09-09T13:41:02;17.90;99.90
23719;DHT22;43322;52.230;5.702;2022-09-09T13:43:34;17.80;99.90
23719;DHT22;43322;52.230;5.702;2022-09-09T13:46:03;17.80;99.90
23719;DHT22;43322;52.230;5.702;2022-09-09T13:48:30;17.80;99.90
23719;DHT22;43322;52.230;5.702;2022-09-09T13:51:01;18.20;99.90
23719;DHT22;43322;52.230;5.702;2022-09-09T13:53:28;17.90;99.90
23719;DHT22;43322;52.230;5.702;2022-09-09T13:55:56;18.00;99.90
23719;DHT22;43322;52.230;5.702;2022-09-09T13:58:23;18.10;99.90
23719;DHT22;43322;52.230;5.702;2022-09-09T14:00:51;18.20;99.90
23719;DHT22;43322;52.230;5.702;2022-09-09T14:03:18;18.30;99.90
23719;DHT22;43322;52.230;5.702;2022-09-09T14:05:45;18.60;99.90
23719;DHT22;43322;52.230;5.702;2022-09-09T14:08:21;18.30;99.90
23719;DHT22;43322;52.230;5.702;2022-09-09T14:10:49;18.50;99.90
23719;DHT22;43322;52.230;5.702;2022-09-09T14:13:16;18.40;99.90
23719;DHT22;43322;52.230;5.702;2022-09-09T14:15:43;18.40;99.90
23719;DHT22;43322;52.230;5.702;2022-09-09T14:18:12;18.60;99.90
23719;DHT22;43322;52.230;5.702;2022-09-09T14:20:39;18.50;99.90
23719;DHT22;43322;52.230;5.702;2022-09-09T14:23:10;18.40;99.90
23719;DHT22;43322;52.230;5.702;2022-09-09T14:25:41;18.30;99.90
23719;DHT22;43322;52.230;5.702;2022-09-09T14:28:12;18.30;99.90
23719;DHT22;43322;52.230;5.702;2022-09-09T14:30:41;18.20;99.90
23719;DHT22;43322;52.230;5.702;2022-09-09T14:33:13;18.10;99.90
23719;DHT22;43322;52.230;5.702;2022-09-09T14:35:41;18.30;99.90
23719;DHT22;43322;52.230;5.702;2022-09-09T14:38:08;18.10;99.90
23719;DHT22;43322;52.230;5.702;2022-09-09T14:40:37;18.10;99.90
23719;DHT22;43322;52.230;5.702;2022-09-09T14:43:05;18.10;99.90
23719;DHT22;43322;52.230;5.702;2022-09-09T14:45:32;18.20;99.90
23719;DHT22;43322;52.230;5.702;2022-09-09T14:47:59;18.20;99.90
23719;DHT22;43322;52.230;5.702;2022-09-09T14:50:26;18.30;99.90
23719;DHT22;43322;52.230;5.702;2022-09-09T14:52:54;18.30;99.90
23719;DHT22;43322;52.230;5.702;2022-09-09T14:55:21;18.10;99.90
23719;DHT22;43322;52.230;5.702;2022-09-09T14:57:48;18.00;99.90
23719;DHT22;43322;52.230;5.702;2022-09-09T15:00:17;17.90;99.90
23719;DHT22;43322;52.230;5.702;2022-09-09T15:02:44;17.90;99.90
23719;DHT22;43322;52.230;5.702;2022-09-09T15:05:11;17.90;99.90
23719;DHT22;43322;52.230;5.702;2022-09-09T15:07:37;17.80;99.90
23719;DHT22;43322;52.230;5.702;2022-09-09T15:10:05;18.10;99.90
23719;DHT22;43322;52.230;5.702;2022-09-09T15:12:33;17.80;99.90
23719;DHT22;43322;52.230;5.702;2022-09-09T15:15:01;17.80;99.90
23719;DHT22;43322;52.230;5.702;2022-09-09T15:17:29;17.90;99.90
23719;DHT22;43322;52.230;5.702;2022-09-09T15:19:56;18.10;99.90
23719;DHT22;43322;52.230;5.702;2022-09-09T15:22:23;17.90;99.90
23719;DHT22;43322;52.230;5.702;2022-09-09T15:24:51;17.80;99.90
23719;DHT22;43322;52.230;5.702;2022-09-09T15:27:18;17.80;99.90
23719;DHT22;43322;52.230;5.702;2022-09-09T15:29:45;17.70;99.90
23719;DHT22;43322;52.230;5.702;2022-09-09T15:32:12;17.80;99.90
23719;DHT22;43322;52.230;5.702;2022-09-09T15:34:40;17.80;99.90
23719;DHT22;43322;52.230;5.702;2022-09-09T15:37:09;17.80;99.90
23719;DHT22;43322;52.230;5.702;2022-09-09T15:39:38;17.80;99.90
23719;DHT22;43322;52.230;5.702;2022-09-09T15:42:05;17.90;99.90
23719;DHT22;43322;52.230;5.702;2022-09-09T15:44:38;17.70;99.90
23719;DHT22;43322;52.230;5.702;2022-09-09T15:47:07;17.60;99.90
23719;DHT22;43322;52.230;5.702;2022-09-09T15:49:37;17.50;99.90
23719;DHT22;43322;52.230;5.702;2022-09-09T15:52:05;17.50;99.90
23719;DHT22;43322;52.230;5.702;2022-09-09T15:54:34;18.10;99.90
23719;DHT22;43322;52.230;5.702;2022-09-09T15:57:03;17.00;99.90